sensor_id;sensor_type;location;lat;lon;timestamp;P1;durP1;ratioP1;P2;durP2;ratioP2
71413;SDS011;59226;53.212;5.728;2023-09-12T00:01:46;9.83;;;4.00;;
71413;SDS011;59226;53.212;5.728;2023-09-12T00:04:11;10.37;;;4.97;;
71413;SDS011;59226;53.212;5.728;2023-09-12T00:06:36;10.07;;;4.63;;
71413;SDS011;59226;53.212;5.728;2023-09-12T00:09:02;8.77;;;4.77;;
71413;SDS011;59226;53.212;5.728;2023-09-12T00:11:27;11.70;;;6.07;;
71413;SDS011;59226;53.212;5.728;2023-09-12T00:13:52;7.70;;;4.83;;
71413;SDS011;59226;53.212;5.728;2023-09-12T00:16:18;9.50;;;4.73;;
71413;SDS011;59226;53.212;5.728;2023-09-12T00:18:43;10.70;;;5.60;;
71413;SDS011;59226;53.212;5.728;2023-09-12T00:21:08;13.50;;;4.90;;
71413;SDS011;59226;53.212;5.728;2023-09-12T00:23:33;9.70;;;4.80;;
71413;SDS011;59226;53.212;5.728;2023-09-12T00:25:59;12.05;;;4.78;;
71413;SDS011;59226;53.212;5.728;2023-09-12T00:28:24;11.97;;;4.77;;
71413;SDS011;59226;53.212;5.728;2023-09-12T00:30:49;12.23;;;5.93;;
71413;SDS011;59226;53.212;5.728;2023-09-12T00:33:15;8.97;;;5.03;;
71413;SDS011;59226;53.212;5.728;2023-09-12T00:35:40;8.43;;;4.90;;
71413;SDS011;59226;53.212;5.728;2023-09-12T00:38:05;11.80;;;4.83;;
71413;SDS011;59226;53.212;5.728;2023-09-12T00:40:31;10.27;;;5.63;;
71413;SDS011;59226;53.212;5.728;2023-09-12T00:42:57;10.80;;;4.80;;
71413;SDS011;59226;53.212;5.728;2023-09-12T00:45:23;10.20;;;5.15;;
71413;SDS011;59226;53.212;5.728;2023-09-12T00:47:48;12.23;;;5.23;;
71413;SDS011;59226;53.212;5.728;2023-09-12T00:50:14;11.20;;;6.00;;
71413;SDS011;59226;53.212;5.728;2023-09-12T00:52:39;12.30;;;5.90;;
71413;SDS011;59226;53.212;5.728;2023-09-12T00:55:05;16.13;;;4.90;;
71413;SDS011;59226;53.212;5.728;2023-09-12T00:57:32;13.20;;;5.40;;
71413;SDS011;59226;53.212;5.728;2023-09-12T00:59:58;13.00;;;5.35;;
71413;SDS011;59226;53.212;5.728;2023-09-12T01:02:24;10.70;;;5.73;;
71413;SDS011;59226;53.212;5.728;2023-09-12T01:04:49;11.50;;;4.30;;
71413;SDS011;59226;53.212;5.728;2023-09-12T01:07:15;13.67;;;6.13;;
71413;SDS011;59226;53.212;5.728;2023-09-12T01:09:40;11.20;;;5.23;;
71413;SDS011;59226;53.212;5.728;2023-09-12T01:12:05;12.27;;;5.17;;
71413;SDS011;59226;53.212;5.728;2023-09-12T01:14:31;12.02;;;7.05;;
71413;SDS011;59226;53.212;5.728;2023-09-12T01:16:56;10.73;;;4.77;;
71413;SDS011;59226;53.212;5.728;2023-09-12T01:19:22;13.10;;;6.27;;
71413;SDS011;59226;53.212;5.728;2023-09-12T01:29:25;11.33;;;4.67;;
71413;SDS011;59226;53.212;5.728;2023-09-12T01:31:51;11.40;;;5.65;;
71413;SDS011;59226;53.212;5.728;2023-09-12T01:34:17;12.70;;;6.55;;
71413;SDS011;59226;53.212;5.728;2023-09-12T01:36:44;12.50;;;6.80;;
71413;SDS011;59226;53.212;5.728;2023-09-12T01:39:09;8.37;;;5.13;;
71413;SDS011;59226;53.212;5.728;2023-09-12T01:41:35;10.27;;;5.20;;
71413;SDS011;59226;53.212;5.728;2023-09-12T01:44:02;12.55;;;6.45;;
71413;SDS011;59226;53.212;5.728;2023-09-12T01:46:27;10.53;;;5.60;;
71413;SDS011;59226;53.212;5.728;2023-09-12T01:48:53;13.57;;;5.93;;
71413;SDS011;59226;53.212;5.728;2023-09-12T01:51:20;9.95;;;5.53;;
71413;SDS011;59226;53.212;5.728;2023-09-12T01:53:46;11.47;;;6.80;;
71413;SDS011;59226;53.212;5.728;2023-09-12T01:56:12;12.60;;;5.70;;
71413;SDS011;59226;53.212;5.728;2023-09-12T01:58:38;7.50;;;4.10;;
71413;SDS011;59226;53.212;5.728;2023-09-12T02:01:03;16.60;;;5.73;;
71413;SDS011;59226;53.212;5.728;2023-09-12T02:03:29;10.00;;;5.45;;
71413;SDS011;59226;53.212;5.728;2023-09-12T02:05:54;9.50;;;5.07;;
71413;SDS011;59226;53.212;5.728;2023-09-12T02:08:19;11.00;;;5.50;;
71413;SDS011;59226;53.212;5.728;2023-09-12T02:10:44;12.43;;;5.43;;
71413;SDS011;59226;53.212;5.728;2023-09-12T02:13:09;9.80;;;5.13;;
71413;SDS011;59226;53.212;5.728;2023-09-12T02:15:35;10.03;;;5.13;;
71413;SDS011;59226;53.212;5.728;2023-09-12T02:18:00;13.30;;;5.67;;
71413;SDS011;59226;53.212;5.728;2023-09-12T02:20:25;8.30;;;4.87;;
71413;SDS011;59226;53.212;5.728;2023-09-12T02:22:50;11.73;;;5.67;;
71413;SDS011;59226;53.212;5.728;2023-09-12T02:25:16;13.03;;;6.03;;
71413;SDS011;59226;53.212;5.728;2023-09-12T02:27:41;9.83;;;5.40;;
71413;SDS011;59226;53.212;5.728;2023-09-12T02:30:06;14.10;;;6.40;;
71413;SDS011;59226;53.212;5.728;2023-09-12T02:32:32;8.47;;;4.13;;
71413;SDS011;59226;53.212;5.728;2023-09-12T02:34:57;8.63;;;4.00;;
71413;SDS011;59226;53.212;5.728;2023-09-12T02:37:22;9.63;;;3.27;;
71413;SDS011;59226;53.212;5.728;2023-09-12T02:39:47;13.70;;;5.00;;
71413;SDS011;59226;53.212;5.728;2023-09-12T02:42:13;10.50;;;4.57;;
71413;SDS011;59226;53.212;5.728;2023-09-12T02:44:38;10.10;;;4.97;;
71413;SDS011;59226;53.212;5.728;2023-09-12T02:47:03;8.77;;;5.03;;
71413;SDS011;59226;53.212;5.728;2023-09-12T02:49:29;8.85;;;4.47;;
71413;SDS011;59226;53.212;5.728;2023-09-12T02:51:54;7.07;;;3.47;;
71413;SDS011;59226;53.212;5.728;2023-09-12T02:54:19;9.73;;;3.90;;
71413;SDS011;59226;53.212;5.728;2023-09-12T02:56:44;14.80;;;4.90;;
71413;SDS011;59226;53.212;5.728;2023-09-12T02:59:09;7.40;;;3.27;;
71413;SDS011;59226;53.212;5.728;2023-09-12T03:01:35;12.13;;;4.43;;
71413;SDS011;59226;53.212;5.728;2023-09-12T03:04:00;7.33;;;3.67;;
71413;SDS011;59226;53.212;5.728;2023-09-12T03:06:25;6.83;;;2.93;;
71413;SDS011;59226;53.212;5.728;2023-09-12T03:08:50;6.57;;;3.40;;
71413;SDS011;59226;53.212;5.728;2023-09-12T03:11:16;8.57;;;4.60;;
71413;SDS011;59226;53.212;5.728;2023-09-12T03:13:41;12.23;;;4.67;;
71413;SDS011;59226;53.212;5.728;2023-09-12T03:16:13;12.33;;;4.63;;
71413;SDS011;59226;53.212;5.728;2023-09-12T03:18:38;7.80;;;3.63;;
71413;SDS011;59226;53.212;5.728;2023-09-12T03:21:04;10.30;;;4.57;;
71413;SDS011;59226;53.212;5.728;2023-09-12T03:23:29;7.93;;;4.47;;
71413;SDS011;59226;53.212;5.728;2023-09-12T03:25:54;7.83;;;4.83;;
71413;SDS011;59226;53.212;5.728;2023-09-12T03:28:19;10.00;;;4.63;;
71413;SDS011;59226;53.212;5.728;2023-09-12T03:30:45;7.07;;;4.13;;
71413;SDS011;59226;53.212;5.728;2023-09-12T03:33:10;10.87;;;4.73;;
71413;SDS011;59226;53.212;5.728;2023-09-12T03:35:36;6.83;;;3.73;;
71413;SDS011;59226;53.212;5.728;2023-09-12T03:38:01;9.05;;;4.63;;
71413;SDS011;59226;53.212;5.728;2023-09-12T03:40:29;11.43;;;5.17;;
71413;SDS011;59226;53.212;5.728;2023-09-12T03:42:55;12.20;;;5.65;;
71413;SDS011;59226;53.212;5.728;2023-09-12T03:45:20;9.87;;;4.97;;
71413;SDS011;59226;53.212;5.728;2023-09-12T03:47:46;9.77;;;5.03;;
71413;SDS011;59226;53.212;5.728;2023-09-12T03:50:12;7.50;;;4.03;;
71413;SDS011;59226;53.212;5.728;2023-09-12T03:52:37;8.13;;;4.47;;
71413;SDS011;59226;53.212;5.728;2023-09-12T03:55:02;8.23;;;3.83;;
71413;SDS011;59226;53.212;5.728;2023-09-12T03:57:27;9.20;;;4.43;;
71413;SDS011;59226;53.212;5.728;2023-09-12T03:59:52;12.90;;;3.83;;
71413;SDS011;59226;53.212;5.728;2023-09-12T04:02:18;8.20;;;4.43;;
71413;SDS011;59226;53.212;5.728;2023-09-12T04:04:43;7.90;;;4.60;;
71413;SDS011;59226;53.212;5.728;2023-09-12T04:07:08;8.90;;;4.97;;
71413;SDS011;59226;53.212;5.728;2023-09-12T04:09:33;9.93;;;5.33;;
71413;SDS011;59226;53.212;5.728;2023-09-12T04:11:59;9.80;;;5.37;;
71413;SDS011;59226;53.212;5.728;2023-09-12T04:14:24;7.80;;;4.47;;
71413;SDS011;59226;53.212;5.728;2023-09-12T04:16:49;8.03;;;4.60;;
71413;SDS011;59226;53.212;5.728;2023-09-12T04:19:14;10.37;;;5.73;;
71413;SDS011;59226;53.212;5.728;2023-09-12T04:21:40;9.57;;;5.47;;
71413;SDS011;59226;53.212;5.728;2023-09-12T04:24:05;10.00;;;4.83;;
71413;SDS011;59226;53.212;5.728;2023-09-12T04:26:30;13.48;;;5.38;;
71413;SDS011;59226;53.212;5.728;2023-09-12T04:28:56;11.87;;;5.70;;
71413;SDS011;59226;53.212;5.728;2023-09-12T04:31:21;11.53;;;5.57;;
71413;SDS011;59226;53.212;5.728;2023-09-12T04:33:46;9.70;;;4.90;;
71413;SDS011;59226;53.212;5.728;2023-09-12T04:36:11;10.07;;;6.10;;
71413;SDS011;59226;53.212;5.728;2023-09-12T04:38:37;10.30;;;5.97;;
71413;SDS011;59226;53.212;5.728;2023-09-12T04:41:02;15.67;;;6.20;;
71413;SDS011;59226;53.212;5.728;2023-09-12T04:43:30;9.30;;;4.50;;
71413;SDS011;59226;53.212;5.728;2023-09-12T04:45:55;13.40;;;6.10;;
71413;SDS011;59226;53.212;5.728;2023-09-12T04:48:20;11.50;;;5.30;;
71413;SDS011;59226;53.212;5.728;2023-09-12T04:50:46;11.77;;;4.83;;
71413;SDS011;59226;53.212;5.728;2023-09-12T04:53:11;13.88;;;7.82;;
71413;SDS011;59226;53.212;5.728;2023-09-12T04:55:36;11.47;;;5.13;;
71413;SDS011;59226;53.212;5.728;2023-09-12T04:58:02;11.97;;;4.57;;
71413;SDS011;59226;53.212;5.728;2023-09-12T05:00:27;13.98;;;5.35;;
71413;SDS011;59226;53.212;5.728;2023-09-12T05:02:53;11.13;;;5.00;;
71413;SDS011;59226;53.212;5.728;2023-09-12T05:05:18;10.97;;;5.57;;
71413;SDS011;59226;53.212;5.728;2023-09-12T05:07:43;9.80;;;5.47;;
71413;SDS011;59226;53.212;5.728;2023-09-12T05:10:08;14.30;;;6.13;;
71413;SDS011;59226;53.212;5.728;2023-09-12T05:12:34;11.30;;;6.73;;
71413;SDS011;59226;53.212;5.728;2023-09-12T05:14:59;15.10;;;7.20;;
71413;SDS011;59226;53.212;5.728;2023-09-12T05:17:24;18.33;;;6.97;;
71413;SDS011;59226;53.212;5.728;2023-09-12T05:19:50;15.47;;;7.87;;
71413;SDS011;59226;53.212;5.728;2023-09-12T05:22:15;15.63;;;7.07;;
71413;SDS011;59226;53.212;5.728;2023-09-12T05:24:40;12.80;;;6.07;;
71413;SDS011;59226;53.212;5.728;2023-09-12T05:27:06;19.13;;;7.55;;
71413;SDS011;59226;53.212;5.728;2023-09-12T05:29:31;9.97;;;5.17;;
71413;SDS011;59226;53.212;5.728;2023-09-12T05:31:56;15.53;;;8.67;;
71413;SDS011;59226;53.212;5.728;2023-09-12T05:34:21;11.33;;;4.40;;
71413;SDS011;59226;53.212;5.728;2023-09-12T05:36:46;14.47;;;7.83;;
71413;SDS011;59226;53.212;5.728;2023-09-12T05:39:12;10.57;;;7.23;;
71413;SDS011;59226;53.212;5.728;2023-09-12T05:41:38;13.70;;;7.43;;
71413;SDS011;59226;53.212;5.728;2023-09-12T05:44:04;9.77;;;5.97;;
71413;SDS011;59226;53.212;5.728;2023-09-12T05:46:29;14.73;;;9.00;;
71413;SDS011;59226;53.212;5.728;2023-09-12T05:48:54;17.07;;;7.10;;
71413;SDS011;59226;53.212;5.728;2023-09-12T05:51:20;16.20;;;8.40;;
71413;SDS011;59226;53.212;5.728;2023-09-12T05:53:45;16.70;;;8.30;;
71413;SDS011;59226;53.212;5.728;2023-09-12T05:56:10;15.23;;;7.67;;
71413;SDS011;59226;53.212;5.728;2023-09-12T05:58:35;16.73;;;8.63;;
71413;SDS011;59226;53.212;5.728;2023-09-12T06:01:01;19.07;;;8.70;;
71413;SDS011;59226;53.212;5.728;2023-09-12T06:03:26;17.47;;;6.67;;
71413;SDS011;59226;53.212;5.728;2023-09-12T06:05:51;16.07;;;6.27;;
71413;SDS011;59226;53.212;5.728;2023-09-12T06:08:16;18.30;;;8.60;;
71413;SDS011;59226;53.212;5.728;2023-09-12T06:10:42;15.27;;;8.25;;
71413;SDS011;59226;53.212;5.728;2023-09-12T06:13:07;20.13;;;8.40;;
71413;SDS011;59226;53.212;5.728;2023-09-12T06:15:33;13.30;;;6.83;;
71413;SDS011;59226;53.212;5.728;2023-09-12T06:17:58;15.00;;;6.73;;
71413;SDS011;59226;53.212;5.728;2023-09-12T06:20:23;14.10;;;8.13;;
71413;SDS011;59226;53.212;5.728;2023-09-12T06:22:48;17.10;;;7.83;;
71413;SDS011;59226;53.212;5.728;2023-09-12T06:25:14;16.37;;;7.70;;
71413;SDS011;59226;53.212;5.728;2023-09-12T06:27:39;16.40;;;7.68;;
71413;SDS011;59226;53.212;5.728;2023-09-12T06:30:05;31.00;;;8.90;;
71413;SDS011;59226;53.212;5.728;2023-09-12T06:32:30;15.23;;;8.37;;
71413;SDS011;59226;53.212;5.728;2023-09-12T06:34:55;19.13;;;9.00;;
71413;SDS011;59226;53.212;5.728;2023-09-12T06:37:21;19.70;;;7.37;;
71413;SDS011;59226;53.212;5.728;2023-09-12T06:39:48;12.47;;;7.77;;
71413;SDS011;59226;53.212;5.728;2023-09-12T06:42:14;14.30;;;7.78;;
71413;SDS011;59226;53.212;5.728;2023-09-12T06:44:39;15.37;;;7.50;;
71413;SDS011;59226;53.212;5.728;2023-09-12T06:47:04;18.40;;;8.97;;
71413;SDS011;59226;53.212;5.728;2023-09-12T06:49:30;15.07;;;7.73;;
71413;SDS011;59226;53.212;5.728;2023-09-12T06:51:57;13.85;;;7.18;;
71413;SDS011;59226;53.212;5.728;2023-09-12T06:54:22;15.23;;;7.50;;
71413;SDS011;59226;53.212;5.728;2023-09-12T06:56:47;12.73;;;6.27;;
71413;SDS011;59226;53.212;5.728;2023-09-12T06:59:13;16.42;;;6.80;;
71413;SDS011;59226;53.212;5.728;2023-09-12T07:01:38;16.57;;;7.63;;
71413;SDS011;59226;53.212;5.728;2023-09-12T07:04:04;15.57;;;7.80;;
71413;SDS011;59226;53.212;5.728;2023-09-12T07:06:29;16.00;;;9.13;;
71413;SDS011;59226;53.212;5.728;2023-09-12T07:08:54;18.93;;;7.67;;
71413;SDS011;59226;53.212;5.728;2023-09-12T07:11:19;15.33;;;6.87;;
71413;SDS011;59226;53.212;5.728;2023-09-12T07:13:45;14.67;;;8.43;;
71413;SDS011;59226;53.212;5.728;2023-09-12T07:16:10;10.73;;;6.23;;
71413;SDS011;59226;53.212;5.728;2023-09-12T07:18:35;16.53;;;6.77;;
71413;SDS011;59226;53.212;5.728;2023-09-12T07:21:01;14.47;;;6.60;;
71413;SDS011;59226;53.212;5.728;2023-09-12T07:23:27;18.38;;;7.80;;
71413;SDS011;59226;53.212;5.728;2023-09-12T07:25:53;12.57;;;7.55;;
71413;SDS011;59226;53.212;5.728;2023-09-12T07:28:20;15.47;;;8.13;;
71413;SDS011;59226;53.212;5.728;2023-09-12T07:30:45;16.98;;;7.60;;
71413;SDS011;59226;53.212;5.728;2023-09-12T07:33:11;17.97;;;7.27;;
71413;SDS011;59226;53.212;5.728;2023-09-12T07:35:36;15.77;;;6.87;;
71413;SDS011;59226;53.212;5.728;2023-09-12T07:38:01;14.53;;;6.43;;
71413;SDS011;59226;53.212;5.728;2023-09-12T07:40:27;13.43;;;5.90;;
71413;SDS011;59226;53.212;5.728;2023-09-12T07:42:54;16.90;;;7.13;;
71413;SDS011;59226;53.212;5.728;2023-09-12T07:45:19;10.80;;;4.67;;
71413;SDS011;59226;53.212;5.728;2023-09-12T07:47:45;11.25;;;5.28;;
71413;SDS011;59226;53.212;5.728;2023-09-12T07:50:10;12.50;;;6.10;;
71413;SDS011;59226;53.212;5.728;2023-09-12T07:52:35;11.97;;;5.40;;
71413;SDS011;59226;53.212;5.728;2023-09-12T07:55:01;10.17;;;4.73;;
71413;SDS011;59226;53.212;5.728;2023-09-12T07:57:27;10.30;;;4.57;;
71413;SDS011;59226;53.212;5.728;2023-09-12T07:59:53;12.18;;;4.82;;
71413;SDS011;59226;53.212;5.728;2023-09-12T08:02:18;9.80;;;4.37;;
71413;SDS011;59226;53.212;5.728;2023-09-12T08:04:43;11.57;;;4.70;;
71413;SDS011;59226;53.212;5.728;2023-09-12T08:07:08;13.33;;;4.63;;
71413;SDS011;59226;53.212;5.728;2023-09-12T08:09:53;8.33;;;4.60;;
71413;SDS011;59226;53.212;5.728;2023-09-12T08:12:19;15.00;;;5.05;;
71413;SDS011;59226;53.212;5.728;2023-09-12T08:14:44;9.63;;;4.43;;
71413;SDS011;59226;53.212;5.728;2023-09-12T08:17:10;9.45;;;3.67;;
71413;SDS011;59226;53.212;5.728;2023-09-12T08:19:35;14.63;;;4.60;;
71413;SDS011;59226;53.212;5.728;2023-09-12T08:22:01;7.97;;;3.97;;
71413;SDS011;59226;53.212;5.728;2023-09-12T08:24:26;9.43;;;4.20;;
71413;SDS011;59226;53.212;5.728;2023-09-12T08:26:51;8.57;;;4.13;;
71413;SDS011;59226;53.212;5.728;2023-09-12T08:29:16;14.93;;;4.07;;
71413;SDS011;59226;53.212;5.728;2023-09-12T08:31:42;6.57;;;3.87;;
71413;SDS011;59226;53.212;5.728;2023-09-12T08:34:07;10.50;;;4.20;;
71413;SDS011;59226;53.212;5.728;2023-09-12T08:36:32;12.80;;;5.07;;
71413;SDS011;59226;53.212;5.728;2023-09-12T08:38:58;6.83;;;3.47;;
71413;SDS011;59226;53.212;5.728;2023-09-12T08:41:25;10.57;;;3.95;;
71413;SDS011;59226;53.212;5.728;2023-09-12T08:43:51;7.13;;;3.53;;
71413;SDS011;59226;53.212;5.728;2023-09-12T08:46:16;13.00;;;4.00;;
71413;SDS011;59226;53.212;5.728;2023-09-12T08:48:42;14.45;;;4.20;;
71413;SDS011;59226;53.212;5.728;2023-09-12T08:51:07;9.03;;;3.53;;
71413;SDS011;59226;53.212;5.728;2023-09-12T08:53:34;8.32;;;3.63;;
71413;SDS011;59226;53.212;5.728;2023-09-12T08:56:01;7.35;;;3.42;;
71413;SDS011;59226;53.212;5.728;2023-09-12T08:58:28;7.60;;;3.22;;
71413;SDS011;59226;53.212;5.728;2023-09-12T09:00:54;8.23;;;3.87;;
71413;SDS011;59226;53.212;5.728;2023-09-12T09:03:20;9.47;;;3.70;;
71413;SDS011;59226;53.212;5.728;2023-09-12T09:05:46;7.28;;;3.45;;
71413;SDS011;59226;53.212;5.728;2023-09-12T09:08:13;8.95;;;3.30;;
71413;SDS011;59226;53.212;5.728;2023-09-12T09:10:40;6.10;;;3.22;;
71413;SDS011;59226;53.212;5.728;2023-09-12T09:13:19;5.53;;;2.83;;
71413;SDS011;59226;53.212;5.728;2023-09-12T09:15:44;8.93;;;3.33;;
71413;SDS011;59226;53.212;5.728;2023-09-12T09:18:09;6.85;;;2.47;;
71413;SDS011;59226;53.212;5.728;2023-09-12T09:20:37;10.17;;;3.33;;
71413;SDS011;59226;53.212;5.728;2023-09-12T09:25:30;9.83;;;3.60;;
71413;SDS011;59226;53.212;5.728;2023-09-12T09:27:56;10.60;;;4.60;;
71413;SDS011;59226;53.212;5.728;2023-09-12T09:30:38;9.53;;;3.73;;
71413;SDS011;59226;53.212;5.728;2023-09-12T09:33:04;16.23;;;3.97;;
71413;SDS011;59226;53.212;5.728;2023-09-12T09:35:29;7.30;;;3.67;;
71413;SDS011;59226;53.212;5.728;2023-09-12T09:37:54;7.97;;;3.07;;
71413;SDS011;59226;53.212;5.728;2023-09-12T09:40:21;9.73;;;3.17;;
71413;SDS011;59226;53.212;5.728;2023-09-12T09:42:46;8.07;;;3.50;;
71413;SDS011;59226;53.212;5.728;2023-09-12T09:45:12;11.37;;;4.37;;
71413;SDS011;59226;53.212;5.728;2023-09-12T09:47:37;4.90;;;2.90;;
71413;SDS011;59226;53.212;5.728;2023-09-12T09:50:02;10.15;;;4.13;;
71413;SDS011;59226;53.212;5.728;2023-09-12T09:52:28;9.83;;;4.63;;
71413;SDS011;59226;53.212;5.728;2023-09-12T09:54:53;6.80;;;3.80;;
71413;SDS011;59226;53.212;5.728;2023-09-12T09:57:18;7.53;;;3.33;;
71413;SDS011;59226;53.212;5.728;2023-09-12T09:59:43;10.70;;;3.73;;
71413;SDS011;59226;53.212;5.728;2023-09-12T10:02:14;10.35;;;4.43;;
71413;SDS011;59226;53.212;5.728;2023-09-12T10:04:41;13.03;;;4.73;;
71413;SDS011;59226;53.212;5.728;2023-09-12T10:07:08;6.45;;;2.88;;
71413;SDS011;59226;53.212;5.728;2023-09-12T10:09:34;5.83;;;2.50;;
71413;SDS011;59226;53.212;5.728;2023-09-12T10:12:00;4.70;;;2.28;;
71413;SDS011;59226;53.212;5.728;2023-09-12T10:14:26;11.15;;;3.33;;
71413;SDS011;59226;53.212;5.728;2023-09-12T10:16:52;8.03;;;2.67;;
71413;SDS011;59226;53.212;5.728;2023-09-12T10:24:09;5.90;;;3.40;;
71413;SDS011;59226;53.212;5.728;2023-09-12T10:26:35;9.70;;;3.58;;
71413;SDS011;59226;53.212;5.728;2023-09-12T10:29:01;7.93;;;3.37;;
71413;SDS011;59226;53.212;5.728;2023-09-12T10:31:27;7.32;;;3.13;;
71413;SDS011;59226;53.212;5.728;2023-09-12T10:33:53;7.87;;;2.40;;
71413;SDS011;59226;53.212;5.728;2023-09-12T10:36:19;7.65;;;3.45;;
71413;SDS011;59226;53.212;5.728;2023-09-12T10:38:47;5.88;;;2.70;;
71413;SDS011;59226;53.212;5.728;2023-09-12T10:41:13;12.20;;;3.53;;
71413;SDS011;59226;53.212;5.728;2023-09-12T10:43:42;5.90;;;2.63;;
71413;SDS011;59226;53.212;5.728;2023-09-12T10:46:08;6.32;;;2.75;;
71413;SDS011;59226;53.212;5.728;2023-09-12T10:48:34;9.27;;;3.67;;
71413;SDS011;59226;53.212;5.728;2023-09-12T10:51:00;9.13;;;3.35;;
71413;SDS011;59226;53.212;5.728;2023-09-12T10:53:26;6.75;;;3.53;;
71413;SDS011;59226;53.212;5.728;2023-09-12T10:55:58;6.57;;;3.10;;
71413;SDS011;59226;53.212;5.728;2023-09-12T10:58:24;5.07;;;2.42;;
71413;SDS011;59226;53.212;5.728;2023-09-12T11:01:21;5.90;;;2.27;;
71413;SDS011;59226;53.212;5.728;2023-09-12T11:03:38;4.88;;;2.67;;
71413;SDS011;59226;53.212;5.728;2023-09-12T11:06:03;5.60;;;2.58;;
71413;SDS011;59226;53.212;5.728;2023-09-12T11:08:35;6.63;;;2.90;;
71413;SDS011;59226;53.212;5.728;2023-09-12T11:11:19;5.95;;;2.58;;
71413;SDS011;59226;53.212;5.728;2023-09-12T11:13:45;6.03;;;2.33;;
71413;SDS011;59226;53.212;5.728;2023-09-12T11:16:11;6.00;;;2.67;;
71413;SDS011;59226;53.212;5.728;2023-09-12T11:21:31;13.50;;;3.03;;
71413;SDS011;59226;53.212;5.728;2023-09-12T11:23:57;7.80;;;3.27;;
71413;SDS011;59226;53.212;5.728;2023-09-12T11:26:23;6.13;;;2.15;;
71413;SDS011;59226;53.212;5.728;2023-09-12T11:28:49;4.87;;;2.33;;
71413;SDS011;59226;53.212;5.728;2023-09-12T11:31:25;4.72;;;1.88;;
71413;SDS011;59226;53.212;5.728;2023-09-12T11:33:51;4.75;;;2.38;;
71413;SDS011;59226;53.212;5.728;2023-09-12T11:36:17;4.90;;;2.22;;
71413;SDS011;59226;53.212;5.728;2023-09-12T11:38:43;7.57;;;2.20;;
71413;SDS011;59226;53.212;5.728;2023-09-12T11:41:08;4.17;;;1.63;;
71413;SDS011;59226;53.212;5.728;2023-09-12T11:43:34;3.73;;;1.60;;
71413;SDS011;59226;53.212;5.728;2023-09-12T11:46:03;4.13;;;1.70;;
71413;SDS011;59226;53.212;5.728;2023-09-12T11:48:29;4.70;;;2.10;;
71413;SDS011;59226;53.212;5.728;2023-09-12T11:50:55;4.60;;;1.98;;
71413;SDS011;59226;53.212;5.728;2023-09-12T11:53:22;3.03;;;1.40;;
71413;SDS011;59226;53.212;5.728;2023-09-12T11:55:52;3.20;;;1.40;;
71413;SDS011;59226;53.212;5.728;2023-09-12T11:58:18;3.38;;;1.65;;
71413;SDS011;59226;53.212;5.728;2023-09-12T12:00:54;3.10;;;1.35;;
71413;SDS011;59226;53.212;5.728;2023-09-12T12:03:20;3.33;;;1.48;;
71413;SDS011;59226;53.212;5.728;2023-09-12T12:05:46;3.65;;;1.45;;
71413;SDS011;59226;53.212;5.728;2023-09-12T12:08:12;3.97;;;1.83;;
71413;SDS011;59226;53.212;5.728;2023-09-12T12:10:37;5.17;;;2.10;;
71413;SDS011;59226;53.212;5.728;2023-09-12T12:13:06;3.83;;;1.50;;
71413;SDS011;59226;53.212;5.728;2023-09-12T12:15:33;6.18;;;2.60;;
71413;SDS011;59226;53.212;5.728;2023-09-12T12:17:58;4.80;;;1.97;;
71413;SDS011;59226;53.212;5.728;2023-09-12T12:20:23;4.43;;;1.70;;
71413;SDS011;59226;53.212;5.728;2023-09-12T12:22:49;6.97;;;1.97;;
71413;SDS011;59226;53.212;5.728;2023-09-12T12:25:16;4.40;;;1.90;;
71413;SDS011;59226;53.212;5.728;2023-09-12T12:27:42;4.83;;;2.03;;
71413;SDS011;59226;53.212;5.728;2023-09-12T12:30:08;4.27;;;2.33;;
71413;SDS011;59226;53.212;5.728;2023-09-12T12:32:33;6.45;;;1.98;;
71413;SDS011;59226;53.212;5.728;2023-09-12T12:34:58;7.13;;;2.03;;
71413;SDS011;59226;53.212;5.728;2023-09-12T12:37:28;4.40;;;2.33;;
71413;SDS011;59226;53.212;5.728;2023-09-12T12:39:55;5.00;;;1.58;;
71413;SDS011;59226;53.212;5.728;2023-09-12T12:42:20;3.57;;;1.50;;
71413;SDS011;59226;53.212;5.728;2023-09-12T12:44:51;6.28;;;1.80;;
71413;SDS011;59226;53.212;5.728;2023-09-12T12:47:17;4.40;;;2.40;;
71413;SDS011;59226;53.212;5.728;2023-09-12T12:49:42;4.27;;;1.80;;
71413;SDS011;59226;53.212;5.728;2023-09-12T12:52:11;3.22;;;1.52;;
71413;SDS011;59226;53.212;5.728;2023-09-12T12:54:36;4.27;;;1.67;;
71413;SDS011;59226;53.212;5.728;2023-09-12T12:57:01;10.27;;;1.73;;
71413;SDS011;59226;53.212;5.728;2023-09-12T12:59:27;3.58;;;1.52;;
71413;SDS011;59226;53.212;5.728;2023-09-12T13:01:54;3.40;;;1.25;;
71413;SDS011;59226;53.212;5.728;2023-09-12T13:04:20;3.13;;;1.60;;
71413;SDS011;59226;53.212;5.728;2023-09-12T13:06:45;2.40;;;1.30;;
71413;SDS011;59226;53.212;5.728;2023-09-12T13:09:11;5.47;;;0.83;;
71413;SDS011;59226;53.212;5.728;2023-09-12T13:11:36;5.33;;;2.00;;
71413;SDS011;59226;53.212;5.728;2023-09-12T13:14:03;4.25;;;1.35;;
71413;SDS011;59226;53.212;5.728;2023-09-12T13:16:34;5.60;;;2.00;;
71413;SDS011;59226;53.212;5.728;2023-09-12T13:18:59;5.90;;;1.47;;
71413;SDS011;59226;53.212;5.728;2023-09-12T13:21:25;3.57;;;1.70;;
71413;SDS011;59226;53.212;5.728;2023-09-12T13:23:50;3.17;;;1.17;;
71413;SDS011;59226;53.212;5.728;2023-09-12T13:26:15;2.10;;;1.00;;
71413;SDS011;59226;53.212;5.728;2023-09-12T13:28:41;4.43;;;1.63;;
71413;SDS011;59226;53.212;5.728;2023-09-12T13:31:06;3.53;;;1.63;;
71413;SDS011;59226;53.212;5.728;2023-09-12T13:33:31;3.00;;;1.40;;
71413;SDS011;59226;53.212;5.728;2023-09-12T13:35:57;3.73;;;1.50;;
71413;SDS011;59226;53.212;5.728;2023-09-12T13:38:22;4.03;;;1.40;;
71413;SDS011;59226;53.212;5.728;2023-09-12T13:40:48;4.13;;;1.47;;
71413;SDS011;59226;53.212;5.728;2023-09-12T13:43:13;3.15;;;1.40;;
71413;SDS011;59226;53.212;5.728;2023-09-12T13:45:39;2.20;;;0.73;;
71413;SDS011;59226;53.212;5.728;2023-09-12T13:48:05;3.40;;;1.10;;
71413;SDS011;59226;53.212;5.728;2023-09-12T13:50:31;3.17;;;1.00;;
71413;SDS011;59226;53.212;5.728;2023-09-12T13:52:57;3.03;;;1.33;;
71413;SDS011;59226;53.212;5.728;2023-09-12T13:55:24;4.57;;;1.00;;
71413;SDS011;59226;53.212;5.728;2023-09-12T13:57:49;2.70;;;1.55;;
71413;SDS011;59226;53.212;5.728;2023-09-12T14:00:15;0.77;;;0.50;;
71413;SDS011;59226;53.212;5.728;2023-09-12T14:02:40;4.60;;;1.50;;
71413;SDS011;59226;53.212;5.728;2023-09-12T14:05:05;2.80;;;1.57;;
71413;SDS011;59226;53.212;5.728;2023-09-12T14:07:31;2.70;;;1.10;;
71413;SDS011;59226;53.212;5.728;2023-09-12T14:09:56;1.17;;;0.63;;
71413;SDS011;59226;53.212;5.728;2023-09-12T14:12:22;3.42;;;1.23;;
71413;SDS011;59226;53.212;5.728;2023-09-12T14:14:47;2.43;;;1.10;;
71413;SDS011;59226;53.212;5.728;2023-09-12T14:17:13;2.23;;;0.83;;
71413;SDS011;59226;53.212;5.728;2023-09-12T14:19:38;3.53;;;1.67;;
71413;SDS011;59226;53.212;5.728;2023-09-12T14:22:04;3.63;;;1.17;;
71413;SDS011;59226;53.212;5.728;2023-09-12T14:24:29;2.43;;;1.07;;
71413;SDS011;59226;53.212;5.728;2023-09-12T14:26:54;2.90;;;1.10;;
71413;SDS011;59226;53.212;5.728;2023-09-12T14:29:19;2.93;;;1.27;;
71413;SDS011;59226;53.212;5.728;2023-09-12T14:31:45;3.03;;;1.13;;
71413;SDS011;59226;53.212;5.728;2023-09-12T14:34:15;3.47;;;1.25;;
71413;SDS011;59226;53.212;5.728;2023-09-12T14:36:40;3.13;;;1.20;;
71413;SDS011;59226;53.212;5.728;2023-09-12T14:39:06;3.40;;;0.90;;
71413;SDS011;59226;53.212;5.728;2023-09-12T14:41:31;2.77;;;1.13;;
71413;SDS011;59226;53.212;5.728;2023-09-12T14:43:57;1.13;;;0.82;;
71413;SDS011;59226;53.212;5.728;2023-09-12T14:46:22;1.40;;;1.00;;
71413;SDS011;59226;53.212;5.728;2023-09-12T14:48:47;1.13;;;0.93;;
71413;SDS011;59226;53.212;5.728;2023-09-12T14:51:12;2.20;;;0.83;;